createdAt,value
2017-09-11T00:00:34.430Z,12.40
2017-09-11T00:03:00.703Z,12.40
2017-09-11T00:05:26.984Z,12.40
2017-09-11T00:07:53.710Z,12.30
2017-09-11T00:10:20.004Z,12.20
2017-09-11T00:12:47.072Z,12.30
2017-09-11T00:15:13.718Z,12.20
2017-09-11T00:17:39.970Z,12.20
2017-09-11T00:20:06.224Z,12.30
2017-09-11T00:22:32.822Z,12.30
2017-09-11T00:24:59.095Z,12.30
2017-09-11T00:27:25.359Z,12.30
2017-09-11T00:29:52.726Z,12.30
2017-09-11T00:32:19.012Z,12.30
2017-09-11T00:34:45.331Z,12.20
2017-09-11T00:37:12.038Z,12.20
2017-09-11T00:39:38.376Z,12.30
2017-09-11T00:42:04.623Z,12.30
2017-09-11T00:44:31.342Z,12.20
2017-09-11T00:46:57.705Z,12.10
2017-09-11T00:49:24.058Z,12.00
2017-09-11T00:51:51.496Z,12.00
2017-09-11T00:54:17.782Z,12.00
2017-09-11T00:56:44.054Z,12.10
2017-09-11T00:59:10.807Z,12.00
2017-09-11T01:01:37.098Z,12.00
2017-09-11T01:04:03.532Z,12.10
2017-09-11T01:06:30.300Z,12.00
2017-09-11T01:08:57.341Z,11.90
2017-09-11T01:11:23.632Z,11.80
2017-09-11T01:13:50.281Z,11.90
2017-09-11T01:16:16.648Z,11.90
2017-09-11T01:18:42.937Z,11.80
2017-09-11T01:21:16.638Z,11.80
2017-09-11T01:23:42.974Z,11.80
2017-09-11T01:26:09.306Z,11.90
2017-09-11T01:28:35.967Z,11.90
2017-09-11T01:31:02.326Z,11.90
2017-09-11T01:33:29.349Z,11.90
2017-09-11T01:35:56.055Z,11.80
2017-09-11T01:38:22.348Z,11.80
2017-09-11T01:40:49.425Z,11.90
2017-09-11T01:43:16.116Z,11.90
2017-09-11T01:45:42.376Z,12.00
2017-09-11T01:48:09.491Z,11.80
2017-09-11T01:50:36.142Z,11.70
2017-09-11T01:53:02.533Z,11.80
2017-09-11T01:55:28.801Z,11.70
2017-09-11T01:57:55.492Z,11.70
2017-09-11T02:00:21.827Z,11.70
2017-09-11T02:02:48.085Z,11.70
2017-09-11T02:05:14.731Z,11.60
2017-09-11T02:07:41.805Z,11.60
2017-09-11T02:10:08.880Z,11.60
2017-09-11T02:12:35.544Z,11.60
2017-09-11T02:15:01.793Z,11.70
2017-09-11T02:17:28.042Z,11.60
2017-09-11T02:19:54.723Z,11.60
2017-09-11T02:22:21.005Z,11.60
2017-09-11T02:24:47.305Z,11.60
2017-09-11T02:27:14.069Z,11.50
2017-09-11T02:29:40.396Z,11.60
2017-09-11T02:32:06.778Z,11.50
2017-09-11T02:34:33.424Z,11.60
2017-09-11T02:36:59.752Z,11.50
2017-09-11T02:39:26.100Z,11.50
2017-09-11T02:41:52.726Z,11.40
2017-09-11T02:44:19.104Z,11.40
2017-09-11T02:46:45.384Z,11.30
2017-09-11T02:49:12.077Z,11.30
2017-09-11T02:51:38.354Z,11.20
2017-09-11T02:54:04.649Z,11.20
2017-09-11T02:56:32.037Z,11.20
2017-09-11T02:58:58.298Z,11.10
2017-09-11T03:01:24.591Z,11.10
2017-09-11T03:03:51.278Z,11.10
2017-09-11T03:06:17.549Z,11.10
2017-09-11T03:08:44.554Z,11.20
2017-09-11T03:11:11.133Z,11.20
2017-09-11T03:13:37.448Z,11.30
2017-09-11T03:16:03.705Z,11.30
2017-09-11T03:18:30.398Z,11.20
2017-09-11T03:20:56.666Z,11.20
2017-09-11T03:23:23.670Z,11.20
2017-09-11T03:25:50.409Z,11.20
2017-09-11T03:28:16.712Z,11.10
2017-09-11T03:30:43.003Z,11.10
2017-09-11T03:33:10.077Z,11.10
2017-09-11T03:35:36.412Z,11.20
2017-09-11T03:38:02.689Z,11.10
2017-09-11T03:40:29.012Z,11.10
2017-09-11T03:42:55.286Z,11.10
2017-09-11T03:45:21.597Z,11.10
2017-09-11T03:47:48.688Z,11.20
2017-09-11T03:50:15.011Z,11.20
2017-09-11T03:52:41.333Z,11.20
2017-09-11T03:55:07.680Z,11.30
2017-09-11T03:57:33.981Z,11.40
2017-09-11T04:00:00.284Z,11.40
2017-09-11T04:02:27.725Z,11.30
2017-09-11T04:04:54.753Z,11.30
2017-09-11T04:07:21.010Z,11.30
2017-09-11T04:09:47.701Z,11.40
2017-09-11T04:12:14.110Z,11.30
2017-09-11T04:14:41.165Z,11.20
2017-09-11T04:17:08.292Z,11.30
2017-09-11T04:19:35.309Z,11.30
2017-09-11T04:22:01.639Z,11.30
2017-09-11T04:24:27.945Z,11.20
2017-09-11T04:26:54.261Z,11.20
2017-09-11T04:29:20.529Z,11.20
2017-09-11T04:31:46.812Z,11.20
2017-09-11T04:34:13.915Z,11.20
2017-09-11T04:36:40.244Z,11.20
2017-09-11T04:39:06.596Z,11.20
2017-09-11T04:41:33.689Z,11.10
2017-09-11T04:43:59.976Z,11.10
2017-09-11T04:46:27.511Z,11.20
2017-09-11T04:48:53.769Z,11.20
2017-09-11T04:51:20.786Z,11.20
2017-09-11T04:53:47.505Z,11.20
2017-09-11T04:56:13.773Z,11.20
2017-09-11T04:58:40.776Z,11.20
2017-09-11T05:01:07.065Z,11.10
2017-09-11T05:03:34.110Z,11.30
2017-09-11T05:06:01.141Z,11.30
2017-09-11T05:08:30.212Z,11.30
2017-09-11T05:10:56.548Z,11.40
2017-09-11T05:13:22.851Z,11.30
2017-09-11T05:15:49.506Z,11.40
2017-09-11T05:18:15.872Z,11.40
2017-09-11T05:20:42.090Z,11.40
2017-09-11T05:23:08.386Z,11.50
2017-09-11T05:25:39.720Z,11.50
2017-09-11T05:28:05.968Z,11.50
2017-09-11T05:30:32.853Z,11.50
2017-09-11T05:33:01.291Z,11.60
2017-09-11T05:35:27.597Z,11.60
2017-09-11T05:37:53.882Z,11.70
2017-09-11T05:40:20.134Z,11.70
2017-09-11T05:42:47.228Z,12.00
2017-09-11T05:45:13.897Z,11.90
2017-09-11T05:47:40.230Z,12.00
2017-09-11T05:50:06.501Z,12.10
2017-09-11T05:52:33.154Z,12.20
2017-09-11T05:54:59.413Z,12.30
2017-09-11T05:57:25.678Z,12.30
2017-09-11T05:59:53.057Z,12.40
2017-09-11T06:02:19.325Z,12.40
2017-09-11T06:04:45.676Z,12.10
2017-09-11T06:07:12.699Z,12.10
2017-09-11T06:09:39.050Z,12.20
2017-09-11T06:12:05.354Z,12.40
2017-09-11T06:14:32.085Z,12.40
2017-09-11T06:16:58.441Z,12.40
2017-09-11T06:19:24.746Z,12.40
2017-09-11T06:21:51.418Z,12.50
2017-09-11T06:24:17.713Z,12.60
2017-09-11T06:26:45.054Z,12.70
2017-09-11T06:29:11.702Z,12.60
2017-09-11T06:31:38.040Z,12.70
2017-09-11T06:34:04.487Z,12.90
2017-09-11T06:36:30.816Z,12.90
2017-09-11T06:38:57.093Z,12.80
2017-09-11T06:41:25.101Z,13.00
2017-09-11T06:43:51.370Z,13.00
2017-09-11T06:46:17.702Z,13.10
2017-09-11T06:48:51.006Z,13.20
2017-09-11T06:51:17.377Z,13.30
2017-09-11T06:53:44.326Z,13.40
2017-09-11T06:56:10.754Z,13.60
2017-09-11T06:58:37.019Z,13.60
2017-09-11T07:01:03.725Z,13.50
2017-09-11T07:03:29.995Z,13.40
2017-09-11T07:05:57.036Z,13.40
2017-09-11T07:08:23.753Z,13.70
2017-09-11T07:10:50.108Z,13.80
2017-09-11T07:13:23.717Z,14.00
2017-09-11T07:15:50.013Z,14.00
2017-09-11T07:18:16.301Z,14.20
2017-09-11T07:20:43.330Z,14.20
2017-09-11T07:23:09.634Z,14.20
2017-09-11T07:25:36.973Z,14.40
2017-09-11T07:28:03.845Z,14.60
2017-09-11T07:30:30.177Z,14.80
2017-09-11T07:32:56.478Z,14.80
2017-09-11T07:35:23.152Z,14.90
2017-09-11T07:37:49.483Z,15.10
2017-09-11T07:40:15.770Z,15.30
2017-09-11T07:42:42.096Z,15.40
2017-09-11T07:45:08.389Z,15.60
2017-09-11T07:47:34.840Z,15.70
2017-09-11T07:50:02.225Z,16.00
2017-09-11T07:52:28.438Z,15.90
2017-09-11T07:54:54.718Z,16.20
2017-09-11T07:57:21.022Z,16.40
2017-09-11T07:59:47.302Z,16.40
2017-09-11T08:02:14.360Z,16.50
2017-09-11T08:04:40.673Z,16.50
2017-09-11T08:07:07.007Z,16.40
2017-09-11T08:09:34.021Z,17.00
2017-09-11T08:12:00.353Z,17.00
2017-09-11T08:14:26.620Z,17.10
2017-09-11T08:16:53.599Z,17.30
2017-09-11T08:19:20.238Z,17.30
2017-09-11T08:21:46.553Z,17.30
2017-09-11T08:24:12.828Z,17.50
2017-09-11T08:26:39.127Z,17.80
2017-09-11T08:29:05.405Z,18.00
2017-09-11T08:31:31.712Z,18.00
2017-09-11T08:33:58.033Z,17.90
2017-09-11T08:36:24.407Z,18.30
2017-09-11T08:38:51.418Z,18.60
2017-09-11T08:41:18.040Z,18.60
2017-09-11T08:43:44.369Z,18.20
2017-09-11T08:46:10.625Z,18.10
2017-09-11T08:48:36.965Z,18.10
2017-09-11T08:51:03.266Z,18.10
2017-09-11T08:53:29.552Z,18.00
2017-09-11T08:55:56.552Z,17.70
2017-09-11T08:58:22.818Z,17.70
2017-09-11T09:00:49.185Z,17.50
2017-09-11T09:03:15.499Z,17.50
2017-09-11T09:05:42.601Z,17.30
2017-09-11T09:08:08.936Z,17.30
2017-09-11T09:10:35.252Z,17.50
2017-09-11T09:13:01.646Z,17.70
2017-09-11T09:15:27.928Z,17.80
2017-09-11T09:17:54.618Z,17.90
2017-09-11T09:20:20.951Z,18.00
2017-09-11T09:22:47.925Z,17.80
2017-09-11T09:25:14.249Z,17.90
2017-09-11T09:27:40.525Z,17.80
2017-09-11T09:30:06.839Z,17.70
2017-09-11T09:32:33.103Z,17.60
2017-09-11T09:35:00.168Z,17.40
2017-09-11T09:37:26.453Z,17.30
2017-09-11T09:39:52.756Z,17.30
2017-09-11T09:42:19.104Z,17.30
2017-09-11T09:44:45.400Z,17.30
2017-09-11T09:47:11.710Z,17.20
2017-09-11T09:49:38.769Z,16.70
2017-09-11T09:52:05.091Z,16.70
2017-09-11T09:54:31.865Z,16.70
2017-09-11T09:56:58.166Z,16.60
2017-09-11T09:59:24.494Z,16.70
2017-09-11T10:01:51.600Z,17.10
2017-09-11T10:04:17.846Z,17.10
2017-09-11T10:06:44.148Z,17.10
2017-09-11T10:09:10.870Z,17.20
2017-09-11T10:11:37.194Z,17.10
2017-09-11T10:14:03.515Z,17.00
2017-09-11T10:16:29.846Z,17.10
2017-09-11T10:18:56.188Z,17.10
2017-09-11T10:21:22.517Z,17.10
2017-09-11T10:23:48.857Z,17.10
2017-09-11T10:26:15.214Z,17.00
2017-09-11T10:28:41.545Z,16.90
2017-09-11T10:31:08.244Z,16.90
2017-09-11T10:33:34.553Z,16.90
2017-09-11T10:36:01.674Z,16.80
2017-09-11T10:38:28.005Z,16.80
2017-09-11T10:40:54.317Z,16.70
2017-09-11T10:43:21.510Z,16.70
2017-09-11T10:45:48.597Z,16.70
2017-09-11T10:48:14.965Z,16.70
2017-09-11T10:50:41.274Z,16.60
2017-09-11T10:53:07.670Z,16.60
2017-09-11T10:55:33.977Z,16.70
2017-09-11T10:58:01.070Z,16.80
2017-09-11T11:00:27.370Z,16.80
2017-09-11T11:02:53.685Z,16.80
2017-09-11T11:05:20.692Z,16.90
2017-09-11T11:07:47.416Z,16.90
2017-09-11T11:10:13.678Z,16.90
2017-09-11T11:12:39.969Z,17.00
2017-09-11T11:15:06.271Z,17.00
2017-09-11T11:17:33.314Z,17.00
2017-09-11T11:20:00.364Z,16.90
2017-09-11T11:22:27.760Z,16.90
2017-09-11T11:24:54.037Z,16.90
2017-09-11T11:27:21.067Z,16.90
2017-09-11T11:29:47.667Z,16.90
2017-09-11T11:32:13.926Z,16.90
2017-09-11T11:34:40.204Z,16.90
2017-09-11T11:37:06.880Z,16.90
2017-09-11T11:39:33.228Z,16.90
2017-09-11T11:41:59.555Z,16.80
2017-09-11T11:44:26.318Z,16.90
2017-09-11T11:46:53.865Z,16.90
2017-09-11T11:49:20.217Z,16.80
2017-09-11T11:51:47.326Z,16.70
2017-09-11T11:54:13.661Z,16.70
2017-09-11T11:56:40.079Z,16.70
2017-09-11T11:59:06.370Z,16.50
2017-09-11T12:01:34.010Z,16.40
2017-09-11T12:04:00.321Z,16.40
2017-09-11T12:06:26.976Z,16.40
2017-09-11T12:08:53.310Z,16.40
2017-09-11T12:11:20.365Z,16.60
2017-09-11T12:13:46.980Z,16.60
2017-09-11T12:16:13.281Z,16.60
2017-09-11T12:18:39.604Z,16.40
2017-09-11T12:21:06.287Z,16.50
2017-09-11T12:23:33.314Z,16.80
2017-09-11T12:25:59.625Z,16.80
2017-09-11T12:28:26.303Z,16.90
2017-09-11T12:30:52.604Z,17.10
2017-09-11T12:33:19.112Z,17.30
2017-09-11T12:35:45.438Z,17.60
2017-09-11T12:38:11.928Z,18.00
2017-09-11T12:40:38.239Z,18.30
2017-09-11T12:43:04.536Z,18.30
2017-09-11T12:45:30.861Z,18.50
2017-09-11T12:47:58.044Z,18.90
2017-09-11T12:50:24.672Z,18.90
2017-09-11T12:52:50.938Z,18.90
2017-09-11T12:55:17.237Z,18.80
2017-09-11T12:57:43.573Z,18.90
2017-09-11T13:00:09.860Z,19.20
2017-09-11T13:02:36.932Z,19.80
2017-09-11T13:05:03.304Z,19.70
2017-09-11T13:07:29.634Z,20.00
2017-09-11T13:09:56.138Z,20.00
2017-09-11T13:12:22.770Z,19.90
2017-09-11T13:14:49.097Z,19.90
2017-09-11T13:17:15.410Z,20.40
2017-09-11T13:19:41.712Z,21.00
2017-09-11T13:22:07.989Z,21.00
2017-09-11T13:24:34.282Z,21.00
2017-09-11T13:27:01.377Z,20.20
2017-09-11T13:29:27.655Z,20.20
2017-09-11T13:31:53.979Z,20.00
2017-09-11T13:34:20.602Z,20.50
2017-09-11T13:36:46.909Z,20.90
2017-09-11T13:39:13.165Z,21.20
2017-09-11T13:41:39.556Z,20.80
2017-09-11T13:44:05.831Z,20.60
2017-09-11T13:46:32.089Z,20.20
2017-09-11T13:48:59.101Z,19.50
2017-09-11T13:51:25.396Z,19.50
2017-09-11T13:53:51.641Z,19.00
2017-09-11T13:56:18.302Z,18.70
2017-09-11T13:58:44.589Z,18.70
2017-09-11T14:01:10.915Z,18.70
2017-09-11T14:03:37.217Z,18.60
2017-09-11T14:06:03.522Z,18.50
2017-09-11T14:08:29.769Z,18.50
2017-09-11T14:10:56.453Z,18.30
2017-09-11T14:13:22.773Z,17.90
2017-09-11T14:15:49.063Z,17.80
2017-09-11T14:18:15.380Z,17.90
2017-09-11T14:20:41.665Z,18.00
2017-09-11T14:23:07.988Z,18.10
2017-09-11T14:25:34.375Z,18.30
2017-09-11T14:28:00.679Z,18.30
2017-09-11T14:30:26.948Z,18.40
2017-09-11T14:32:53.540Z,18.40
2017-09-11T14:35:19.868Z,18.40
2017-09-11T14:37:46.210Z,18.10
2017-09-11T14:40:12.441Z,18.20
2017-09-11T14:42:38.822Z,18.10
2017-09-11T14:45:05.964Z,17.80
2017-09-11T14:47:32.250Z,17.80
2017-09-11T14:49:58.537Z,18.10
2017-09-11T14:52:25.578Z,18.70
2017-09-11T14:54:52.674Z,18.40
2017-09-11T14:57:18.937Z,18.40
2017-09-11T14:59:45.241Z,18.20
2017-09-11T15:02:11.617Z,18.10
2017-09-11T15:04:38.720Z,17.90
2017-09-11T15:07:05.024Z,17.90
2017-09-11T15:09:31.707Z,17.50
2017-09-11T15:11:58.002Z,17.20
2017-09-11T15:14:24.358Z,17.20
2017-09-11T15:16:50.962Z,17.20
2017-09-11T15:19:17.269Z,17.30
2017-09-11T15:21:44.254Z,18.20
2017-09-11T15:24:10.608Z,18.20
2017-09-11T15:26:36.911Z,18.30
2017-09-11T15:29:03.209Z,18.40
2017-09-11T15:31:30.297Z,17.90
2017-09-11T15:33:56.546Z,17.90
2017-09-11T15:36:22.837Z,17.80
2017-09-11T15:38:49.184Z,17.80
2017-09-11T15:41:15.475Z,17.90
2017-09-11T15:43:42.530Z,17.90
2017-09-11T15:46:09.629Z,17.80
2017-09-11T15:48:35.994Z,17.80
2017-09-11T15:51:03.439Z,17.80
2017-09-11T15:53:30.142Z,17.80
2017-09-11T15:55:56.471Z,17.80
2017-09-11T15:58:22.741Z,17.80
2017-09-11T16:00:49.097Z,17.80
2017-09-11T16:03:16.163Z,17.60
2017-09-11T16:05:42.491Z,17.60
2017-09-11T16:08:09.241Z,17.50
2017-09-11T16:10:35.579Z,17.50
2017-09-11T16:13:01.920Z,17.30
2017-09-11T16:15:28.202Z,17.40
2017-09-11T16:17:55.217Z,17.20
2017-09-11T16:20:21.521Z,17.20
2017-09-11T16:22:48.131Z,17.30
2017-09-11T16:25:14.412Z,17.30
2017-09-11T16:27:40.741Z,17.40
2017-09-11T16:30:07.093Z,17.20
2017-09-11T16:32:33.377Z,17.10
2017-09-11T16:34:59.665Z,17.10
2017-09-11T16:37:26.761Z,17.00
2017-09-11T16:39:53.081Z,17.00
2017-09-11T16:42:19.424Z,16.90
2017-09-11T16:44:45.790Z,16.90
2017-09-11T16:47:12.086Z,17.00
2017-09-11T16:49:38.402Z,17.00
2017-09-11T16:52:05.080Z,17.00
2017-09-11T16:54:31.388Z,16.90
2017-09-11T16:56:57.769Z,16.60
2017-09-11T16:59:25.318Z,16.50
2017-09-11T17:01:52.391Z,16.50
2017-09-11T17:04:18.686Z,16.50
2017-09-11T17:06:45.409Z,16.40
2017-09-11T17:09:11.793Z,16.50
2017-09-11T17:11:38.342Z,16.40
2017-09-11T17:14:04.988Z,16.50
2017-09-11T17:16:31.323Z,16.40
2017-09-11T17:18:57.596Z,16.40
2017-09-11T17:21:24.073Z,16.50
2017-09-11T17:23:50.370Z,16.50
2017-09-11T17:26:16.622Z,16.40
2017-09-11T17:28:43.642Z,16.20
2017-09-11T17:31:09.916Z,16.20
2017-09-11T17:33:36.236Z,16.00
2017-09-11T17:36:02.538Z,15.90
2017-09-11T17:38:28.924Z,15.80
2017-09-11T17:40:55.223Z,15.70
2017-09-11T17:43:24.344Z,15.70
2017-09-11T17:45:51.614Z,15.70
2017-09-11T17:48:18.708Z,15.70
2017-09-11T17:50:46.089Z,15.70
2017-09-11T17:53:12.440Z,15.70
2017-09-11T17:55:38.726Z,15.70
2017-09-11T17:58:05.771Z,15.60
2017-09-11T18:00:32.873Z,15.50
2017-09-11T18:02:59.209Z,15.50
2017-09-11T18:05:25.473Z,15.50
2017-09-11T18:07:52.572Z,15.60
2017-09-11T18:10:19.296Z,15.50
2017-09-11T18:12:45.630Z,15.50
2017-09-11T18:15:11.950Z,15.50
2017-09-11T18:17:38.644Z,15.50
2017-09-11T18:20:04.894Z,15.50
2017-09-11T18:22:31.912Z,15.50
2017-09-11T18:24:58.210Z,15.50
2017-09-11T18:27:24.513Z,15.50
2017-09-11T18:29:51.573Z,15.40
2017-09-11T18:32:18.260Z,15.30
2017-09-11T18:34:44.630Z,15.30
2017-09-11T18:37:10.887Z,15.20
2017-09-11T18:39:37.161Z,15.10
2017-09-11T18:42:03.443Z,15.00
2017-09-11T18:44:29.829Z,15.10
2017-09-11T18:46:56.908Z,14.90
2017-09-11T18:49:23.235Z,14.80
2017-09-11T18:51:49.593Z,14.80
2017-09-11T18:54:15.857Z,14.60
2017-09-11T18:56:42.448Z,14.60
2017-09-11T18:59:08.719Z,14.60
2017-09-11T19:01:35.054Z,14.60
2017-09-11T19:04:01.409Z,14.50
2017-09-11T19:06:28.488Z,14.40
2017-09-11T19:08:54.777Z,14.40
2017-09-11T19:11:21.089Z,14.50
2017-09-11T19:13:47.345Z,14.50
2017-09-11T19:16:14.457Z,14.50
2017-09-11T19:18:40.693Z,14.50
2017-09-11T19:21:07.289Z,14.50
2017-09-11T19:23:33.577Z,14.50
2017-09-11T19:25:59.854Z,14.40
2017-09-11T19:28:26.204Z,14.30
2017-09-11T19:30:52.513Z,14.20
2017-09-11T19:33:18.846Z,14.10
2017-09-11T19:35:45.585Z,13.90
2017-09-11T19:38:11.990Z,13.80
2017-09-11T19:40:39.033Z,13.70
2017-09-11T19:43:06.532Z,13.60
2017-09-11T19:45:32.809Z,13.60
2017-09-11T19:47:59.161Z,13.50
2017-09-11T19:50:26.587Z,13.40
2017-09-11T19:52:52.933Z,13.30
2017-09-11T19:55:20.087Z,13.30
2017-09-11T19:57:48.363Z,13.30
2017-09-11T20:00:15.486Z,13.20
2017-09-11T20:02:41.768Z,13.10
2017-09-11T20:05:08.473Z,13.10
2017-09-11T20:07:35.522Z,12.90
2017-09-11T20:10:02.139Z,12.90
2017-09-11T20:12:28.596Z,12.80
2017-09-11T20:14:55.657Z,12.70
2017-09-11T20:17:23.061Z,12.70
2017-09-11T20:19:49.409Z,12.70
2017-09-11T20:22:15.713Z,12.70
2017-09-11T20:24:41.972Z,12.60
2017-09-11T20:27:08.266Z,12.60
2017-09-11T20:29:34.553Z,12.60
2017-09-11T20:32:01.997Z,12.60
2017-09-11T20:34:28.280Z,12.60
2017-09-11T20:36:54.572Z,12.60
2017-09-11T20:39:21.647Z,12.40
2017-09-11T20:41:48.328Z,12.40
2017-09-11T20:44:14.600Z,12.40
2017-09-11T20:46:41.654Z,12.20
2017-09-11T20:49:08.108Z,12.20
2017-09-11T20:51:34.383Z,12.20
2017-09-11T20:54:00.704Z,12.20
2017-09-11T20:56:27.030Z,12.20
2017-09-11T20:58:53.285Z,12.20
2017-09-11T21:01:19.534Z,12.20
2017-09-11T21:03:46.556Z,12.10
2017-09-11T21:06:13.195Z,12.10
2017-09-11T21:08:39.466Z,12.00
2017-09-11T21:11:35.805Z,11.90
2017-09-11T21:14:02.146Z,12.00
2017-09-11T21:16:28.452Z,12.00
2017-09-11T21:18:54.753Z,12.00
2017-09-11T21:21:21.049Z,11.90
2017-09-11T21:23:48.060Z,11.90
2017-09-11T21:26:15.140Z,12.00
2017-09-11T21:28:41.382Z,12.00
2017-09-11T21:31:07.728Z,12.00
2017-09-11T21:33:34.461Z,11.90
2017-09-11T21:36:01.465Z,11.90
2017-09-11T21:38:27.740Z,11.80
2017-09-11T21:40:54.078Z,11.90
2017-09-11T21:43:20.356Z,12.00
2017-09-11T21:45:46.646Z,12.00
2017-09-11T21:48:12.932Z,12.00
2017-09-11T21:50:39.283Z,11.90
2017-09-11T21:53:05.596Z,11.80
2017-09-11T21:55:32.233Z,11.70
2017-09-11T21:57:58.456Z,11.50
2017-09-11T22:00:24.726Z,11.40
2017-09-11T22:02:51.361Z,11.30
2017-09-11T22:05:17.647Z,11.30
2017-09-11T22:07:43.965Z,11.20
2017-09-11T22:10:10.270Z,11.30
2017-09-11T22:12:36.565Z,11.30
2017-09-11T22:15:02.911Z,11.30
2017-09-11T22:17:29.261Z,11.30
2017-09-11T22:19:56.305Z,11.10
2017-09-11T22:22:22.616Z,11.10
2017-09-11T22:24:48.992Z,11.00
2017-09-11T22:27:15.289Z,10.90
2017-09-11T22:29:41.648Z,10.90
2017-09-11T22:32:08.708Z,10.90
2017-09-11T22:34:35.027Z,10.90
2017-09-11T22:37:02.454Z,10.80
2017-09-11T22:39:28.788Z,10.70
2017-09-11T22:41:55.117Z,10.70
2017-09-11T22:44:21.730Z,10.80
2017-09-11T22:46:47.978Z,10.90
2017-09-11T22:49:14.288Z,11.00
2017-09-11T22:51:40.908Z,11.00
2017-09-11T22:54:07.158Z,10.90
2017-09-11T22:56:33.437Z,10.90
2017-09-11T22:59:00.809Z,10.80
2017-09-11T23:01:27.147Z,10.80
2017-09-11T23:03:53.445Z,10.80
2017-09-11T23:06:20.868Z,10.80
2017-09-11T23:08:47.184Z,10.80
2017-09-11T23:11:13.496Z,10.80
2017-09-11T23:13:40.181Z,10.80
2017-09-11T23:16:06.457Z,10.80
2017-09-11T23:18:32.772Z,10.80
2017-09-11T23:21:00.141Z,10.80
2017-09-11T23:23:26.429Z,10.80
2017-09-11T23:25:52.715Z,10.80
2017-09-11T23:28:19.329Z,10.70
2017-09-11T23:30:46.326Z,10.80
2017-09-11T23:33:12.620Z,10.80
2017-09-11T23:35:39.302Z,10.80
2017-09-11T23:38:06.359Z,10.80
2017-09-11T23:40:32.666Z,10.80
2017-09-11T23:42:59.284Z,10.70
2017-09-11T23:45:25.530Z,10.60
2017-09-11T23:47:51.916Z,10.70
2017-09-11T23:50:18.615Z,10.70
2017-09-11T23:52:44.932Z,10.70
2017-09-11T23:55:11.210Z,10.80
2017-09-11T23:57:38.527Z,10.70
